sensor_id;sensor_type;location;lat;lon;timestamp;P1;durP1;ratioP1;P2;durP2;ratioP2
40787;SDS011;26497;52.494;7.546;2023-06-26T00:00:39;1999.90;;;999.90;;
40787;SDS011;26497;52.494;7.546;2023-06-26T00:03:06;1999.90;;;999.90;;
40787;SDS011;26497;52.494;7.546;2023-06-26T00:05:33;1999.90;;;999.90;;
40787;SDS011;26497;52.494;7.546;2023-06-26T00:08:01;1999.90;;;999.90;;
40787;SDS011;26497;52.494;7.546;2023-06-26T00:10:28;1999.90;;;999.90;;
40787;SDS011;26497;52.494;7.546;2023-06-26T00:12:55;1999.90;;;999.90;;
40787;SDS011;26497;52.494;7.546;2023-06-26T00:15:24;1999.90;;;999.90;;
40787;SDS011;26497;52.494;7.546;2023-06-26T00:17:54;1999.90;;;999.90;;
40787;SDS011;26497;52.494;7.546;2023-06-26T00:20:21;1999.90;;;999.90;;
40787;SDS011;26497;52.494;7.546;2023-06-26T00:22:50;1999.90;;;999.90;;
40787;SDS011;26497;52.494;7.546;2023-06-26T00:25:18;1999.90;;;999.90;;
40787;SDS011;26497;52.494;7.546;2023-06-26T00:27:46;1999.90;;;999.90;;
40787;SDS011;26497;52.494;7.546;2023-06-26T00:30:13;1999.90;;;999.90;;
40787;SDS011;26497;52.494;7.546;2023-06-26T00:32:42;1999.90;;;999.90;;
40787;SDS011;26497;52.494;7.546;2023-06-26T00:35:10;1999.90;;;999.90;;
40787;SDS011;26497;52.494;7.546;2023-06-26T00:37:37;1999.90;;;999.90;;
40787;SDS011;26497;52.494;7.546;2023-06-26T00:40:07;1999.90;;;999.90;;
40787;SDS011;26497;52.494;7.546;2023-06-26T00:42:35;1999.90;;;999.90;;
40787;SDS011;26497;52.494;7.546;2023-06-26T00:45:03;1999.90;;;999.90;;
40787;SDS011;26497;52.494;7.546;2023-06-26T00:47:31;1999.90;;;999.90;;
40787;SDS011;26497;52.494;7.546;2023-06-26T00:50:00;1999.90;;;999.90;;
40787;SDS011;26497;52.494;7.546;2023-06-26T00:52:27;1999.90;;;999.90;;
40787;SDS011;26497;52.494;7.546;2023-06-26T00:54:55;1999.90;;;999.90;;
40787;SDS011;26497;52.494;7.546;2023-06-26T00:57:29;1999.90;;;999.90;;
40787;SDS011;26497;52.494;7.546;2023-06-26T01:00:19;1999.90;;;999.90;;
40787;SDS011;26497;52.494;7.546;2023-06-26T01:02:47;1999.90;;;999.90;;
40787;SDS011;26497;52.494;7.546;2023-06-26T01:05:16;1999.90;;;999.90;;
40787;SDS011;26497;52.494;7.546;2023-06-26T01:10:14;1999.90;;;999.90;;
40787;SDS011;26497;52.494;7.546;2023-06-26T01:12:41;1999.90;;;999.90;;
40787;SDS011;26497;52.494;7.546;2023-06-26T01:15:09;1999.90;;;999.90;;
40787;SDS011;26497;52.494;7.546;2023-06-26T01:17:37;1999.90;;;999.90;;
40787;SDS011;26497;52.494;7.546;2023-06-26T01:20:10;1999.90;;;999.90;;
40787;SDS011;26497;52.494;7.546;2023-06-26T01:22:45;1999.90;;;999.90;;
40787;SDS011;26497;52.494;7.546;2023-06-26T01:25:28;1999.90;;;999.90;;
40787;SDS011;26497;52.494;7.546;2023-06-26T01:28:05;1999.90;;;999.90;;
40787;SDS011;26497;52.494;7.546;2023-06-26T01:30:34;1999.90;;;999.90;;
40787;SDS011;26497;52.494;7.546;2023-06-26T01:33:09;1999.90;;;999.90;;
40787;SDS011;26497;52.494;7.546;2023-06-26T01:35:37;1999.90;;;999.90;;
40787;SDS011;26497;52.494;7.546;2023-06-26T01:38:11;1999.90;;;999.90;;
40787;SDS011;26497;52.494;7.546;2023-06-26T01:40:40;1999.90;;;999.90;;
40787;SDS011;26497;52.494;7.546;2023-06-26T01:43:11;1999.90;;;999.90;;
40787;SDS011;26497;52.494;7.546;2023-06-26T01:45:46;1999.90;;;999.90;;
40787;SDS011;26497;52.494;7.546;2023-06-26T01:48:16;1999.90;;;999.90;;
40787;SDS011;26497;52.494;7.546;2023-06-26T01:50:50;1999.90;;;999.90;;
40787;SDS011;26497;52.494;7.546;2023-06-26T01:53:19;1999.90;;;999.90;;
40787;SDS011;26497;52.494;7.546;2023-06-26T01:55:53;1999.90;;;999.90;;
40787;SDS011;26497;52.494;7.546;2023-06-26T01:58:27;1999.90;;;999.90;;
40787;SDS011;26497;52.494;7.546;2023-06-26T02:00:55;1999.90;;;999.90;;
40787;SDS011;26497;52.494;7.546;2023-06-26T02:03:23;1999.90;;;999.90;;
40787;SDS011;26497;52.494;7.546;2023-06-26T02:05:50;1999.90;;;999.90;;
40787;SDS011;26497;52.494;7.546;2023-06-26T02:08:18;1999.90;;;999.90;;
40787;SDS011;26497;52.494;7.546;2023-06-26T02:10:45;1999.90;;;999.90;;
40787;SDS011;26497;52.494;7.546;2023-06-26T02:13:12;1999.90;;;999.90;;
40787;SDS011;26497;52.494;7.546;2023-06-26T02:15:41;1999.90;;;999.90;;
40787;SDS011;26497;52.494;7.546;2023-06-26T02:18:08;1999.90;;;999.90;;
40787;SDS011;26497;52.494;7.546;2023-06-26T02:20:35;1999.90;;;999.90;;
40787;SDS011;26497;52.494;7.546;2023-06-26T02:23:02;1999.90;;;999.90;;
40787;SDS011;26497;52.494;7.546;2023-06-26T02:25:35;1999.90;;;999.90;;
40787;SDS011;26497;52.494;7.546;2023-06-26T02:28:02;1999.90;;;999.90;;
40787;SDS011;26497;52.494;7.546;2023-06-26T02:30:30;1999.90;;;999.90;;
40787;SDS011;26497;52.494;7.546;2023-06-26T02:33:01;1999.90;;;999.90;;
40787;SDS011;26497;52.494;7.546;2023-06-26T02:35:28;1999.90;;;999.90;;
40787;SDS011;26497;52.494;7.546;2023-06-26T02:37:58;1999.90;;;999.90;;
40787;SDS011;26497;52.494;7.546;2023-06-26T02:40:25;1999.90;;;999.90;;
40787;SDS011;26497;52.494;7.546;2023-06-26T02:42:52;1999.90;;;999.90;;
40787;SDS011;26497;52.494;7.546;2023-06-26T02:45:19;1999.90;;;999.90;;
40787;SDS011;26497;52.494;7.546;2023-06-26T02:47:46;1999.90;;;999.90;;
40787;SDS011;26497;52.494;7.546;2023-06-26T02:50:15;1999.90;;;999.90;;
40787;SDS011;26497;52.494;7.546;2023-06-26T02:52:42;1999.90;;;999.90;;
40787;SDS011;26497;52.494;7.546;2023-06-26T02:55:13;1999.90;;;999.90;;
40787;SDS011;26497;52.494;7.546;2023-06-26T02:57:40;1999.90;;;999.90;;
40787;SDS011;26497;52.494;7.546;2023-06-26T03:00:08;1999.90;;;999.90;;
40787;SDS011;26497;52.494;7.546;2023-06-26T03:02:36;1999.90;;;999.90;;
40787;SDS011;26497;52.494;7.546;2023-06-26T03:05:04;1999.90;;;999.90;;
40787;SDS011;26497;52.494;7.546;2023-06-26T03:07:33;1999.90;;;999.90;;
40787;SDS011;26497;52.494;7.546;2023-06-26T03:10:00;1999.90;;;999.90;;
40787;SDS011;26497;52.494;7.546;2023-06-26T03:12:27;1999.90;;;999.90;;
40787;SDS011;26497;52.494;7.546;2023-06-26T03:14:55;1999.90;;;999.90;;
40787;SDS011;26497;52.494;7.546;2023-06-26T03:17:22;1999.90;;;999.90;;
40787;SDS011;26497;52.494;7.546;2023-06-26T03:19:49;1999.90;;;999.90;;
40787;SDS011;26497;52.494;7.546;2023-06-26T03:22:16;1999.90;;;999.90;;
40787;SDS011;26497;52.494;7.546;2023-06-26T03:24:45;1999.90;;;999.90;;
40787;SDS011;26497;52.494;7.546;2023-06-26T03:27:12;1999.90;;;999.90;;
40787;SDS011;26497;52.494;7.546;2023-06-26T03:29:40;1999.90;;;999.90;;
40787;SDS011;26497;52.494;7.546;2023-06-26T03:32:08;1999.90;;;999.90;;
40787;SDS011;26497;52.494;7.546;2023-06-26T03:34:35;1999.90;;;999.90;;
40787;SDS011;26497;52.494;7.546;2023-06-26T03:37:06;1999.90;;;999.90;;
40787;SDS011;26497;52.494;7.546;2023-06-26T03:39:33;1999.90;;;999.90;;
40787;SDS011;26497;52.494;7.546;2023-06-26T03:42:01;1999.90;;;999.90;;
40787;SDS011;26497;52.494;7.546;2023-06-26T03:44:30;1999.90;;;999.90;;
40787;SDS011;26497;52.494;7.546;2023-06-26T03:46:57;1999.90;;;999.90;;
40787;SDS011;26497;52.494;7.546;2023-06-26T03:49:24;1999.90;;;999.90;;
40787;SDS011;26497;52.494;7.546;2023-06-26T03:51:51;1999.90;;;999.90;;
40787;SDS011;26497;52.494;7.546;2023-06-26T03:55:22;1999.90;;;999.90;;
40787;SDS011;26497;52.494;7.546;2023-06-26T04:01:59;1999.90;;;999.90;;
40787;SDS011;26497;52.494;7.546;2023-06-26T04:05:07;1999.90;;;999.90;;
40787;SDS011;26497;52.494;7.546;2023-06-26T04:07:34;1999.90;;;999.90;;
40787;SDS011;26497;52.494;7.546;2023-06-26T04:10:03;1999.90;;;999.90;;
40787;SDS011;26497;52.494;7.546;2023-06-26T04:12:32;1999.90;;;999.90;;
40787;SDS011;26497;52.494;7.546;2023-06-26T04:15:04;1999.90;;;999.90;;
40787;SDS011;26497;52.494;7.546;2023-06-26T04:17:36;1999.90;;;999.90;;
40787;SDS011;26497;52.494;7.546;2023-06-26T04:20:06;198.32;;;185.23;;
40787;SDS011;26497;52.494;7.546;2023-06-26T04:22:34;183.82;;;172.13;;
40787;SDS011;26497;52.494;7.546;2023-06-26T04:25:02;175.30;;;164.02;;
40787;SDS011;26497;52.494;7.546;2023-06-26T04:27:32;164.73;;;154.73;;
40787;SDS011;26497;52.494;7.546;2023-06-26T04:30:06;126.03;;;118.20;;
40787;SDS011;26497;52.494;7.546;2023-06-26T04:32:35;105.53;;;98.93;;
40787;SDS011;26497;52.494;7.546;2023-06-26T04:35:04;87.47;;;81.63;;
40787;SDS011;26497;52.494;7.546;2023-06-26T04:37:32;81.32;;;76.28;;
40787;SDS011;26497;52.494;7.546;2023-06-26T04:40:07;79.53;;;74.63;;
40787;SDS011;26497;52.494;7.546;2023-06-26T04:42:36;84.50;;;79.32;;
40787;SDS011;26497;52.494;7.546;2023-06-26T04:45:06;96.68;;;90.65;;
40787;SDS011;26497;52.494;7.546;2023-06-26T04:47:37;101.63;;;95.32;;
40787;SDS011;26497;52.494;7.546;2023-06-26T04:50:05;103.75;;;97.20;;
40787;SDS011;26497;52.494;7.546;2023-06-26T04:52:34;114.63;;;107.75;;
40787;SDS011;26497;52.494;7.546;2023-06-26T04:55:02;131.10;;;123.10;;
40787;SDS011;26497;52.494;7.546;2023-06-26T04:57:29;613.95;;;357.02;;
40787;SDS011;26497;52.494;7.546;2023-06-26T04:59:57;1999.90;;;999.90;;
40787;SDS011;26497;52.494;7.546;2023-06-26T05:02:25;1999.90;;;999.90;;
40787;SDS011;26497;52.494;7.546;2023-06-26T05:04:52;1999.90;;;999.90;;
40787;SDS011;26497;52.494;7.546;2023-06-26T05:08:21;1999.90;;;999.90;;
40787;SDS011;26497;52.494;7.546;2023-06-26T05:10:48;1999.90;;;999.90;;
40787;SDS011;26497;52.494;7.546;2023-06-26T05:13:23;1999.90;;;999.90;;
40787;SDS011;26497;52.494;7.546;2023-06-26T05:16:34;1999.90;;;999.90;;
40787;SDS011;26497;52.494;7.546;2023-06-26T05:19:03;1999.90;;;999.90;;
40787;SDS011;26497;52.494;7.546;2023-06-26T05:21:30;1999.90;;;999.90;;
40787;SDS011;26497;52.494;7.546;2023-06-26T05:29:03;1999.90;;;999.90;;
40787;SDS011;26497;52.494;7.546;2023-06-26T05:31:33;1999.90;;;999.90;;
40787;SDS011;26497;52.494;7.546;2023-06-26T05:34:08;1999.90;;;999.90;;
40787;SDS011;26497;52.494;7.546;2023-06-26T05:36:42;1999.90;;;999.90;;
40787;SDS011;26497;52.494;7.546;2023-06-26T05:39:10;1999.90;;;999.90;;
40787;SDS011;26497;52.494;7.546;2023-06-26T05:41:42;1999.90;;;999.90;;
40787;SDS011;26497;52.494;7.546;2023-06-26T05:44:19;1999.90;;;999.90;;
40787;SDS011;26497;52.494;7.546;2023-06-26T05:46:47;1999.90;;;999.90;;
40787;SDS011;26497;52.494;7.546;2023-06-26T05:49:15;1999.90;;;999.90;;
40787;SDS011;26497;52.494;7.546;2023-06-26T05:51:43;1999.90;;;999.90;;
40787;SDS011;26497;52.494;7.546;2023-06-26T05:54:18;1999.90;;;999.90;;
40787;SDS011;26497;52.494;7.546;2023-06-26T05:56:49;1999.90;;;999.90;;
40787;SDS011;26497;52.494;7.546;2023-06-26T05:59:19;1999.90;;;999.90;;
40787;SDS011;26497;52.494;7.546;2023-06-26T06:01:46;1999.90;;;999.90;;
40787;SDS011;26497;52.494;7.546;2023-06-26T06:04:18;1999.90;;;999.90;;
40787;SDS011;26497;52.494;7.546;2023-06-26T06:06:45;1999.90;;;999.90;;
40787;SDS011;26497;52.494;7.546;2023-06-26T06:09:19;1999.90;;;999.90;;
40787;SDS011;26497;52.494;7.546;2023-06-26T06:11:46;1999.90;;;999.90;;
40787;SDS011;26497;52.494;7.546;2023-06-26T06:14:16;1999.90;;;999.90;;
40787;SDS011;26497;52.494;7.546;2023-06-26T06:16:44;1999.90;;;999.90;;
40787;SDS011;26497;52.494;7.546;2023-06-26T06:19:14;1999.90;;;999.90;;
40787;SDS011;26497;52.494;7.546;2023-06-26T06:21:43;1999.90;;;999.90;;
40787;SDS011;26497;52.494;7.546;2023-06-26T06:24:10;1999.90;;;999.90;;
40787;SDS011;26497;52.494;7.546;2023-06-26T06:26:38;1999.90;;;999.90;;
40787;SDS011;26497;52.494;7.546;2023-06-26T06:29:08;1999.90;;;999.90;;
40787;SDS011;26497;52.494;7.546;2023-06-26T06:31:43;1999.90;;;999.90;;
40787;SDS011;26497;52.494;7.546;2023-06-26T06:34:11;1999.90;;;999.90;;
40787;SDS011;26497;52.494;7.546;2023-06-26T06:36:40;1999.90;;;999.90;;
40787;SDS011;26497;52.494;7.546;2023-06-26T06:39:11;1999.90;;;999.90;;
40787;SDS011;26497;52.494;7.546;2023-06-26T06:41:41;1999.90;;;999.90;;
40787;SDS011;26497;52.494;7.546;2023-06-26T06:44:18;1999.90;;;999.90;;
40787;SDS011;26497;52.494;7.546;2023-06-26T06:46:45;1999.90;;;999.90;;
40787;SDS011;26497;52.494;7.546;2023-06-26T06:49:12;1999.90;;;999.90;;
40787;SDS011;26497;52.494;7.546;2023-06-26T06:51:39;1999.90;;;999.90;;
40787;SDS011;26497;52.494;7.546;2023-06-26T06:54:08;231.60;;;218.10;;
40787;SDS011;26497;52.494;7.546;2023-06-26T06:56:35;196.85;;;185.07;;
40787;SDS011;26497;52.494;7.546;2023-06-26T06:59:09;209.40;;;197.20;;
40787;SDS011;26497;52.494;7.546;2023-06-26T07:01:36;183.38;;;172.38;;
40787;SDS011;26497;52.494;7.546;2023-06-26T07:04:06;142.70;;;133.55;;
40787;SDS011;26497;52.494;7.546;2023-06-26T07:06:33;155.25;;;145.85;;
40787;SDS011;26497;52.494;7.546;2023-06-26T07:09:00;147.93;;;137.68;;
40787;SDS011;26497;52.494;7.546;2023-06-26T07:11:30;1999.90;;;999.90;;
40787;SDS011;26497;52.494;7.546;2023-06-26T07:13:58;1999.90;;;999.90;;
40787;SDS011;26497;52.494;7.546;2023-06-26T07:16:25;1999.90;;;999.90;;
40787;SDS011;26497;52.494;7.546;2023-06-26T07:18:52;177.10;;;166.15;;
40787;SDS011;26497;52.494;7.546;2023-06-26T07:21:20;171.90;;;161.07;;
40787;SDS011;26497;52.494;7.546;2023-06-26T07:23:47;168.10;;;157.52;;
40787;SDS011;26497;52.494;7.546;2023-06-26T07:26:15;134.57;;;125.95;;
40787;SDS011;26497;52.494;7.546;2023-06-26T07:28:43;129.48;;;121.47;;
40787;SDS011;26497;52.494;7.546;2023-06-26T07:31:11;131.35;;;123.47;;
40787;SDS011;26497;52.494;7.546;2023-06-26T07:33:38;130.98;;;122.70;;
40787;SDS011;26497;52.494;7.546;2023-06-26T07:36:05;119.13;;;111.68;;
40787;SDS011;26497;52.494;7.546;2023-06-26T07:38:33;111.07;;;103.90;;
40787;SDS011;26497;52.494;7.546;2023-06-26T07:41:00;113.38;;;106.38;;
40787;SDS011;26497;52.494;7.546;2023-06-26T07:43:27;120.32;;;112.90;;
40787;SDS011;26497;52.494;7.546;2023-06-26T07:45:56;128.15;;;120.18;;
40787;SDS011;26497;52.494;7.546;2023-06-26T07:48:23;140.93;;;132.40;;
40787;SDS011;26497;52.494;7.546;2023-06-26T07:50:51;161.70;;;151.88;;
40787;SDS011;26497;52.494;7.546;2023-06-26T07:53:21;189.10;;;178.00;;
40787;SDS011;26497;52.494;7.546;2023-06-26T07:55:48;210.88;;;199.30;;
40787;SDS011;26497;52.494;7.546;2023-06-26T07:58:15;223.02;;;210.95;;
40787;SDS011;26497;52.494;7.546;2023-06-26T08:00:43;209.45;;;197.23;;
40787;SDS011;26497;52.494;7.546;2023-06-26T08:03:11;154.85;;;145.82;;
40787;SDS011;26497;52.494;7.546;2023-06-26T08:05:39;1999.90;;;999.90;;
40787;SDS011;26497;52.494;7.546;2023-06-26T08:08:09;1999.90;;;999.90;;
40787;SDS011;26497;52.494;7.546;2023-06-26T08:10:36;1999.90;;;999.90;;
40787;SDS011;26497;52.494;7.546;2023-06-26T08:13:06;1999.90;;;999.90;;
40787;SDS011;26497;52.494;7.546;2023-06-26T08:15:33;1999.90;;;999.90;;
40787;SDS011;26497;52.494;7.546;2023-06-26T08:18:00;1999.90;;;999.90;;
40787;SDS011;26497;52.494;7.546;2023-06-26T08:20:29;1999.90;;;999.90;;
40787;SDS011;26497;52.494;7.546;2023-06-26T08:22:56;1999.90;;;999.90;;
40787;SDS011;26497;52.494;7.546;2023-06-26T08:25:23;1999.90;;;999.90;;
40787;SDS011;26497;52.494;7.546;2023-06-26T08:27:50;1999.90;;;999.90;;
40787;SDS011;26497;52.494;7.546;2023-06-26T08:30:19;1999.90;;;999.90;;
40787;SDS011;26497;52.494;7.546;2023-06-26T08:32:46;1999.90;;;999.90;;
40787;SDS011;26497;52.494;7.546;2023-06-26T08:35:13;1999.90;;;999.90;;
40787;SDS011;26497;52.494;7.546;2023-06-26T08:37:43;1999.90;;;999.90;;
40787;SDS011;26497;52.494;7.546;2023-06-26T08:40:10;1999.90;;;999.90;;
40787;SDS011;26497;52.494;7.546;2023-06-26T08:42:41;1999.90;;;999.90;;
40787;SDS011;26497;52.494;7.546;2023-06-26T08:45:08;1999.90;;;999.90;;
40787;SDS011;26497;52.494;7.546;2023-06-26T08:47:35;1999.90;;;999.90;;
40787;SDS011;26497;52.494;7.546;2023-06-26T08:50:07;1999.90;;;999.90;;
40787;SDS011;26497;52.494;7.546;2023-06-26T08:52:38;1999.90;;;999.90;;
40787;SDS011;26497;52.494;7.546;2023-06-26T08:55:12;112.43;;;106.15;;
40787;SDS011;26497;52.494;7.546;2023-06-26T08:57:42;85.38;;;80.75;;
40787;SDS011;26497;52.494;7.546;2023-06-26T09:00:10;72.43;;;68.65;;
40787;SDS011;26497;52.494;7.546;2023-06-26T09:02:40;62.85;;;59.63;;
40787;SDS011;26497;52.494;7.546;2023-06-26T09:05:07;73.90;;;69.80;;
40787;SDS011;26497;52.494;7.546;2023-06-26T09:07:35;73.45;;;69.60;;
40787;SDS011;26497;52.494;7.546;2023-06-26T09:10:04;78.65;;;74.43;;
40787;SDS011;26497;52.494;7.546;2023-06-26T09:15:03;53.95;;;50.97;;
40787;SDS011;26497;52.494;7.546;2023-06-26T09:20:05;83.85;;;78.90;;
40787;SDS011;26497;52.494;7.546;2023-06-26T09:25:06;90.20;;;85.20;;
40787;SDS011;26497;52.494;7.546;2023-06-26T09:27:35;84.53;;;80.07;;
40787;SDS011;26497;52.494;7.546;2023-06-26T09:30:03;75.25;;;71.28;;
40787;SDS011;26497;52.494;7.546;2023-06-26T09:32:33;117.68;;;111.18;;
40787;SDS011;26497;52.494;7.546;2023-06-26T09:35:06;1999.90;;;999.90;;
40787;SDS011;26497;52.494;7.546;2023-06-26T09:37:37;1999.90;;;999.90;;
40787;SDS011;26497;52.494;7.546;2023-06-26T09:40:07;1999.90;;;999.90;;
40787;SDS011;26497;52.494;7.546;2023-06-26T09:42:35;1999.90;;;999.90;;
40787;SDS011;26497;52.494;7.546;2023-06-26T09:45:03;1999.90;;;999.90;;
40787;SDS011;26497;52.494;7.546;2023-06-26T09:47:32;83.90;;;79.40;;
40787;SDS011;26497;52.494;7.546;2023-06-26T09:50:06;84.40;;;80.00;;
40787;SDS011;26497;52.494;7.546;2023-06-26T09:52:50;88.35;;;83.57;;
40787;SDS011;26497;52.494;7.546;2023-06-26T09:55:22;61.05;;;57.83;;
40787;SDS011;26497;52.494;7.546;2023-06-26T09:57:53;80.90;;;76.45;;
40787;SDS011;26497;52.494;7.546;2023-06-26T10:00:28;126.57;;;119.78;;
40787;SDS011;26497;52.494;7.546;2023-06-26T10:03:00;153.32;;;144.85;;
40787;SDS011;26497;52.494;7.546;2023-06-26T10:05:30;109.90;;;103.72;;
40787;SDS011;26497;52.494;7.546;2023-06-26T10:08:04;130.63;;;123.22;;
40787;SDS011;26497;52.494;7.546;2023-06-26T10:10:34;104.55;;;98.90;;
40787;SDS011;26497;52.494;7.546;2023-06-26T10:13:04;1999.90;;;999.90;;
40787;SDS011;26497;52.494;7.546;2023-06-26T10:15:37;1999.90;;;999.90;;
40787;SDS011;26497;52.494;7.546;2023-06-26T10:18:06;1999.90;;;999.90;;
40787;SDS011;26497;52.494;7.546;2023-06-26T10:20:34;1999.90;;;999.90;;
40787;SDS011;26497;52.494;7.546;2023-06-26T10:23:04;1999.90;;;999.90;;
40787;SDS011;26497;52.494;7.546;2023-06-26T10:25:35;1999.90;;;999.90;;
40787;SDS011;26497;52.494;7.546;2023-06-26T10:28:07;1999.90;;;999.90;;
40787;SDS011;26497;52.494;7.546;2023-06-26T10:30:37;1999.90;;;999.90;;
40787;SDS011;26497;52.494;7.546;2023-06-26T10:33:06;113.68;;;107.43;;
40787;SDS011;26497;52.494;7.546;2023-06-26T10:35:34;1999.90;;;999.90;;
40787;SDS011;26497;52.494;7.546;2023-06-26T10:38:09;1999.90;;;999.90;;
40787;SDS011;26497;52.494;7.546;2023-06-26T10:40:42;1999.90;;;999.90;;
40787;SDS011;26497;52.494;7.546;2023-06-26T10:43:12;1999.90;;;999.90;;
40787;SDS011;26497;52.494;7.546;2023-06-26T10:45:44;1999.90;;;999.90;;
40787;SDS011;26497;52.494;7.546;2023-06-26T10:48:17;1999.90;;;999.90;;
40787;SDS011;26497;52.494;7.546;2023-06-26T10:50:46;1533.20;;;781.40;;
40787;SDS011;26497;52.494;7.546;2023-06-26T10:53:15;88.85;;;83.85;;
40787;SDS011;26497;52.494;7.546;2023-06-26T10:55:54;64.68;;;61.17;;
40787;SDS011;26497;52.494;7.546;2023-06-26T10:58:28;54.08;;;51.08;;
40787;SDS011;26497;52.494;7.546;2023-06-26T11:01:22;68.45;;;64.95;;
40787;SDS011;26497;52.494;7.546;2023-06-26T11:04:03;110.93;;;104.78;;
40787;SDS011;26497;52.494;7.546;2023-06-26T11:06:32;118.65;;;112.30;;
40787;SDS011;26497;52.494;7.546;2023-06-26T11:09:08;129.88;;;122.72;;
40787;SDS011;26497;52.494;7.546;2023-06-26T11:11:57;1999.90;;;999.90;;
40787;SDS011;26497;52.494;7.546;2023-06-26T11:14:29;1999.90;;;999.90;;
40787;SDS011;26497;52.494;7.546;2023-06-26T11:16:58;1999.90;;;999.90;;
40787;SDS011;26497;52.494;7.546;2023-06-26T11:19:30;1999.90;;;999.90;;
40787;SDS011;26497;52.494;7.546;2023-06-26T11:21:58;1999.90;;;999.90;;
40787;SDS011;26497;52.494;7.546;2023-06-26T11:27:00;1530.68;;;778.97;;
40787;SDS011;26497;52.494;7.546;2023-06-26T11:29:29;95.47;;;90.32;;
40787;SDS011;26497;52.494;7.546;2023-06-26T11:32:01;98.70;;;93.45;;
40787;SDS011;26497;52.494;7.546;2023-06-26T11:34:36;112.97;;;106.25;;
40787;SDS011;26497;52.494;7.546;2023-06-26T11:37:03;120.45;;;113.40;;
40787;SDS011;26497;52.494;7.546;2023-06-26T11:39:31;1071.47;;;567.45;;
40787;SDS011;26497;52.494;7.546;2023-06-26T11:42:04;1999.90;;;999.90;;
40787;SDS011;26497;52.494;7.546;2023-06-26T11:44:32;1999.90;;;999.90;;
40787;SDS011;26497;52.494;7.546;2023-06-26T11:47:08;1999.90;;;999.90;;
40787;SDS011;26497;52.494;7.546;2023-06-26T11:49:41;1999.90;;;999.90;;
40787;SDS011;26497;52.494;7.546;2023-06-26T11:52:09;1999.90;;;999.90;;
40787;SDS011;26497;52.494;7.546;2023-06-26T11:54:37;1999.90;;;999.90;;
40787;SDS011;26497;52.494;7.546;2023-06-26T11:57:06;1999.90;;;999.90;;
40787;SDS011;26497;52.494;7.546;2023-06-26T11:59:34;1999.90;;;999.90;;
40787;SDS011;26497;52.494;7.546;2023-06-26T12:02:06;1999.90;;;999.90;;
40787;SDS011;26497;52.494;7.546;2023-06-26T12:04:34;1999.90;;;999.90;;
40787;SDS011;26497;52.494;7.546;2023-06-26T12:07:04;1999.90;;;999.90;;
40787;SDS011;26497;52.494;7.546;2023-06-26T12:09:37;1999.90;;;999.90;;
40787;SDS011;26497;52.494;7.546;2023-06-26T12:12:10;1999.90;;;999.90;;
40787;SDS011;26497;52.494;7.546;2023-06-26T12:14:38;1999.90;;;999.90;;
40787;SDS011;26497;52.494;7.546;2023-06-26T12:17:08;1999.90;;;999.90;;
40787;SDS011;26497;52.494;7.546;2023-06-26T12:19:36;1999.90;;;999.90;;
40787;SDS011;26497;52.494;7.546;2023-06-26T12:22:07;1999.90;;;999.90;;
40787;SDS011;26497;52.494;7.546;2023-06-26T12:24:36;1999.90;;;999.90;;
40787;SDS011;26497;52.494;7.546;2023-06-26T12:27:07;1999.90;;;999.90;;
40787;SDS011;26497;52.494;7.546;2023-06-26T12:29:39;1999.90;;;999.90;;
40787;SDS011;26497;52.494;7.546;2023-06-26T12:32:08;1999.90;;;999.90;;
40787;SDS011;26497;52.494;7.546;2023-06-26T12:34:37;1999.90;;;999.90;;
40787;SDS011;26497;52.494;7.546;2023-06-26T12:37:06;1999.90;;;999.90;;
40787;SDS011;26497;52.494;7.546;2023-06-26T12:39:45;1999.90;;;999.90;;
40787;SDS011;26497;52.494;7.546;2023-06-26T12:42:15;1999.90;;;999.90;;
40787;SDS011;26497;52.494;7.546;2023-06-26T12:44:43;1999.90;;;999.90;;
40787;SDS011;26497;52.494;7.546;2023-06-26T12:47:12;1999.90;;;999.90;;
40787;SDS011;26497;52.494;7.546;2023-06-26T12:52:10;73.22;;;69.22;;
40787;SDS011;26497;52.494;7.546;2023-06-26T12:54:40;57.43;;;54.33;;
40787;SDS011;26497;52.494;7.546;2023-06-26T12:57:09;59.50;;;56.40;;
40787;SDS011;26497;52.494;7.546;2023-06-26T12:59:40;57.65;;;54.53;;
40787;SDS011;26497;52.494;7.546;2023-06-26T13:02:08;59.20;;;55.85;;
40787;SDS011;26497;52.494;7.546;2023-06-26T13:04:36;64.32;;;60.95;;
40787;SDS011;26497;52.494;7.546;2023-06-26T13:07:06;53.80;;;51.00;;
40787;SDS011;26497;52.494;7.546;2023-06-26T13:09:34;57.33;;;54.33;;
40787;SDS011;26497;52.494;7.546;2023-06-26T13:12:06;59.00;;;55.60;;
40787;SDS011;26497;52.494;7.546;2023-06-26T13:14:36;73.13;;;68.88;;
40787;SDS011;26497;52.494;7.546;2023-06-26T13:17:06;93.30;;;88.15;;
40787;SDS011;26497;52.494;7.546;2023-06-26T13:19:33;81.47;;;77.22;;
40787;SDS011;26497;52.494;7.546;2023-06-26T13:22:00;86.70;;;81.85;;
40787;SDS011;26497;52.494;7.546;2023-06-26T13:24:27;57.05;;;53.92;;
40787;SDS011;26497;52.494;7.546;2023-06-26T13:26:55;54.90;;;52.13;;
40787;SDS011;26497;52.494;7.546;2023-06-26T13:29:22;53.50;;;50.70;;
40787;SDS011;26497;52.494;7.546;2023-06-26T13:31:52;75.85;;;71.70;;
40787;SDS011;26497;52.494;7.546;2023-06-26T13:34:21;84.80;;;80.28;;
40787;SDS011;26497;52.494;7.546;2023-06-26T13:36:52;77.93;;;73.78;;
40787;SDS011;26497;52.494;7.546;2023-06-26T13:39:20;65.00;;;61.60;;
40787;SDS011;26497;52.494;7.546;2023-06-26T13:41:47;64.45;;;61.13;;
40787;SDS011;26497;52.494;7.546;2023-06-26T13:44:14;66.93;;;63.08;;
40787;SDS011;26497;52.494;7.546;2023-06-26T13:46:42;59.38;;;56.00;;
40787;SDS011;26497;52.494;7.546;2023-06-26T13:49:09;58.72;;;55.40;;
40787;SDS011;26497;52.494;7.546;2023-06-26T13:51:37;68.20;;;64.57;;
40787;SDS011;26497;52.494;7.546;2023-06-26T13:54:11;79.70;;;75.53;;
40787;SDS011;26497;52.494;7.546;2023-06-26T13:56:39;71.10;;;66.75;;
40787;SDS011;26497;52.494;7.546;2023-06-26T13:59:06;51.80;;;49.00;;
40787;SDS011;26497;52.494;7.546;2023-06-26T14:01:36;58.35;;;55.17;;
40787;SDS011;26497;52.494;7.546;2023-06-26T14:04:11;43.03;;;40.30;;
40787;SDS011;26497;52.494;7.546;2023-06-26T14:06:40;42.72;;;40.20;;
40787;SDS011;26497;52.494;7.546;2023-06-26T14:09:07;43.95;;;41.45;;
40787;SDS011;26497;52.494;7.546;2023-06-26T14:11:38;45.47;;;42.88;;
40787;SDS011;26497;52.494;7.546;2023-06-26T14:14:08;46.88;;;44.50;;
40787;SDS011;26497;52.494;7.546;2023-06-26T14:16:36;45.42;;;42.72;;
40787;SDS011;26497;52.494;7.546;2023-06-26T14:19:08;55.65;;;52.38;;
40787;SDS011;26497;52.494;7.546;2023-06-26T14:21:42;57.78;;;54.47;;
40787;SDS011;26497;52.494;7.546;2023-06-26T14:24:09;65.05;;;61.45;;
40787;SDS011;26497;52.494;7.546;2023-06-26T14:26:39;62.08;;;58.83;;
40787;SDS011;26497;52.494;7.546;2023-06-26T14:29:07;68.50;;;64.50;;
40787;SDS011;26497;52.494;7.546;2023-06-26T14:31:34;78.47;;;74.05;;
40787;SDS011;26497;52.494;7.546;2023-06-26T14:34:07;81.55;;;76.78;;